sensor_id;sensor_type;location;lat;lon;timestamp;temperature;humidity
8736;DHT22;4404;49.308;12.178;2024-03-23T06:32:27;9.20;99.90
8736;DHT22;4404;49.308;12.178;2024-03-23T06:34:29;9.20;99.90
8736;DHT22;4404;49.308;12.178;2024-03-23T06:36:30;9.80;99.90
8736;DHT22;4404;49.308;12.178;2024-03-23T06:38:33;9.50;99.90
8736;DHT22;4404;49.308;12.178;2024-03-23T06:40:36;10.30;99.90
8736;DHT22;4404;49.308;12.178;2024-03-23T06:42:38;9.60;99.90
8736;DHT22;4404;49.308;12.178;2024-03-23T06:44:39;9.80;99.90
8736;DHT22;4404;49.308;12.178;2024-03-23T06:46:42;9.80;99.90
8736;DHT22;4404;49.308;12.178;2024-03-23T06:48:45;10.00;99.90
8736;DHT22;4404;49.308;12.178;2024-03-23T06:50:47;10.40;99.90
8736;DHT22;4404;49.308;12.178;2024-03-23T06:52:49;10.00;99.90
8736;DHT22;4404;49.308;12.178;2024-03-23T06:54:54;11.00;99.90
8736;DHT22;4404;49.308;12.178;2024-03-23T06:56:55;10.20;99.90
8736;DHT22;4404;49.308;12.178;2024-03-23T06:58:58;10.20;99.90
8736;DHT22;4404;49.308;12.178;2024-03-23T07:01:00;10.30;99.90
8736;DHT22;4404;49.308;12.178;2024-03-23T07:03:02;10.50;99.90
8736;DHT22;4404;49.308;12.178;2024-03-23T07:05:08;10.60;99.90
8736;DHT22;4404;49.308;12.178;2024-03-23T07:07:14;10.70;99.90
8736;DHT22;4404;49.308;12.178;2024-03-23T07:09:16;10.30;99.90
8736;DHT22;4404;49.308;12.178;2024-03-23T07:11:26;10.90;99.90
8736;DHT22;4404;49.308;12.178;2024-03-23T07:13:38;10.90;99.90
8736;DHT22;4404;49.308;12.178;2024-03-23T07:15:56;11.10;99.90
8736;DHT22;4404;49.308;12.178;2024-03-23T07:18:07;11.40;99.90
8736;DHT22;4404;49.308;12.178;2024-03-23T07:20:16;10.70;99.90
8736;DHT22;4404;49.308;12.178;2024-03-23T07:22:18;10.70;99.90
8736;DHT22;4404;49.308;12.178;2024-03-23T07:24:19;10.70;99.90
8736;DHT22;4404;49.308;12.178;2024-03-23T07:26:21;10.70;99.90
8736;DHT22;4404;49.308;12.178;2024-03-23T07:28:22;10.60;99.90
8736;DHT22;4404;49.308;12.178;2024-03-23T07:30:24;10.70;99.90
8736;DHT22;4404;49.308;12.178;2024-03-23T07:32:26;10.50;99.90
8736;DHT22;4404;49.308;12.178;2024-03-23T07:34:27;10.50;99.90
8736;DHT22;4404;49.308;12.178;2024-03-23T07:36:31;10.80;99.90
8736;DHT22;4404;49.308;12.178;2024-03-23T07:38:32;11.50;99.90
8736;DHT22;4404;49.308;12.178;2024-03-23T07:40:34;11.10;99.90
8736;DHT22;4404;49.308;12.178;2024-03-23T07:42:35;10.60;99.90
8736;DHT22;4404;49.308;12.178;2024-03-23T07:44:38;10.60;99.90
8736;DHT22;4404;49.308;12.178;2024-03-23T07:46:39;10.60;99.90
8736;DHT22;4404;49.308;12.178;2024-03-23T07:48:41;11.20;99.90
8736;DHT22;4404;49.308;12.178;2024-03-23T07:50:43;10.50;99.90
8736;DHT22;4404;49.308;12.178;2024-03-23T07:52:47;10.60;99.90
8736;DHT22;4404;49.308;12.178;2024-03-23T07:54:48;10.40;99.90
8736;DHT22;4404;49.308;12.178;2024-03-23T07:56:50;10.30;99.90
8736;DHT22;4404;49.308;12.178;2024-03-23T07:58:51;10.50;99.90
8736;DHT22;4404;49.308;12.178;2024-03-23T08:00:54;10.10;99.90
8736;DHT22;4404;49.308;12.178;2024-03-23T08:02:55;10.10;99.90
8736;DHT22;4404;49.308;12.178;2024-03-23T08:04:58;10.10;99.90
8736;DHT22;4404;49.308;12.178;2024-03-23T08:06:59;10.10;99.90
8736;DHT22;4404;49.308;12.178;2024-03-23T08:09:02;10.40;99.90
8736;DHT22;4404;49.308;12.178;2024-03-23T08:11:04;10.10;99.90
8736;DHT22;4404;49.308;12.178;2024-03-23T08:13:08;9.90;99.90
8736;DHT22;4404;49.308;12.178;2024-03-23T08:15:09;9.90;99.90
8736;DHT22;4404;49.308;12.178;2024-03-23T08:17:12;10.50;99.90
8736;DHT22;4404;49.308;12.178;2024-03-23T08:19:13;10.20;99.90
8736;DHT22;4404;49.308;12.178;2024-03-23T08:21:16;9.90;99.90
8736;DHT22;4404;49.308;12.178;2024-03-23T08:23:17;9.80;99.90
8736;DHT22;4404;49.308;12.178;2024-03-23T08:25:20;9.90;99.90
8736;DHT22;4404;49.308;12.178;2024-03-23T08:27:22;10.40;99.90
8736;DHT22;4404;49.308;12.178;2024-03-23T08:29:24;10.50;99.90
8736;DHT22;4404;49.308;12.178;2024-03-23T08:31:25;9.80;99.90
8736;DHT22;4404;49.308;12.178;2024-03-23T08:33:27;9.80;99.90
8736;DHT22;4404;49.308;12.178;2024-03-23T08:35:29;9.90;99.90
8736;DHT22;4404;49.308;12.178;2024-03-23T08:37:30;10.20;99.90
8736;DHT22;4404;49.308;12.178;2024-03-23T08:39:32;9.70;99.90
8736;DHT22;4404;49.308;12.178;2024-03-23T08:41:35;9.80;99.90
8736;DHT22;4404;49.308;12.178;2024-03-23T08:43:40;9.70;99.90
8736;DHT22;4404;49.308;12.178;2024-03-23T08:45:41;10.60;99.90
8736;DHT22;4404;49.308;12.178;2024-03-23T08:47:43;10.50;99.90
8736;DHT22;4404;49.308;12.178;2024-03-23T08:49:45;9.70;99.90
8736;DHT22;4404;49.308;12.178;2024-03-23T08:51:50;9.90;99.90
8736;DHT22;4404;49.308;12.178;2024-03-23T08:54:13;9.70;99.90
8736;DHT22;4404;49.308;12.178;2024-03-23T08:56:37;9.30;99.90
8736;DHT22;4404;49.308;12.178;2024-03-23T08:58:53;10.10;99.90
8736;DHT22;4404;49.308;12.178;2024-03-23T09:01:11;9.70;99.90
8736;DHT22;4404;49.308;12.178;2024-03-23T09:03:16;10.00;99.90
8736;DHT22;4404;49.308;12.178;2024-03-23T09:05:20;10.20;99.90
8736;DHT22;4404;49.308;12.178;2024-03-23T09:07:22;9.70;99.90
8736;DHT22;4404;49.308;12.178;2024-03-23T09:12:22;9.50;99.90
8736;DHT22;4404;49.308;12.178;2024-03-23T09:14:40;9.60;99.90
8736;DHT22;4404;49.308;12.178;2024-03-23T09:16:41;9.70;99.90
8736;DHT22;4404;49.308;12.178;2024-03-23T09:18:43;9.80;99.90
8736;DHT22;4404;49.308;12.178;2024-03-23T09:20:45;10.50;99.90
8736;DHT22;4404;49.308;12.178;2024-03-23T09:22:52;10.30;99.90
8736;DHT22;4404;49.308;12.178;2024-03-23T09:24:55;10.60;99.90
8736;DHT22;4404;49.308;12.178;2024-03-23T09:27:04;9.80;99.90
8736;DHT22;4404;49.308;12.178;2024-03-23T09:29:10;9.80;99.90
8736;DHT22;4404;49.308;12.178;2024-03-23T09:31:20;9.90;99.90
8736;DHT22;4404;49.308;12.178;2024-03-23T09:33:30;9.70;99.90
8736;DHT22;4404;49.308;12.178;2024-03-23T09:35:36;10.40;99.90
8736;DHT22;4404;49.308;12.178;2024-03-23T09:37:40;10.20;99.90
8736;DHT22;4404;49.308;12.178;2024-03-23T09:39:43;10.00;99.90
8736;DHT22;4404;49.308;12.178;2024-03-23T09:41:45;10.00;99.90
8736;DHT22;4404;49.308;12.178;2024-03-23T09:43:48;9.60;99.90
8736;DHT22;4404;49.308;12.178;2024-03-23T09:45:52;9.70;99.90
8736;DHT22;4404;49.308;12.178;2024-03-23T09:47:55;10.00;99.90
8736;DHT22;4404;49.308;12.178;2024-03-23T09:49:57;9.80;99.90
8736;DHT22;4404;49.308;12.178;2024-03-23T09:51:59;10.30;99.90
8736;DHT22;4404;49.308;12.178;2024-03-23T09:57:14;9.30;99.90
8736;DHT22;4404;49.308;12.178;2024-03-23T09:59:15;9.40;99.90
8736;DHT22;4404;49.308;12.178;2024-03-23T10:01:31;9.70;99.90
8736;DHT22;4404;49.308;12.178;2024-03-23T10:03:42;9.50;99.90
8736;DHT22;4404;49.308;12.178;2024-03-23T10:05:47;9.70;99.90
8736;DHT22;4404;49.308;12.178;2024-03-23T10:07:51;10.20;99.90
8736;DHT22;4404;49.308;12.178;2024-03-23T10:09:56;9.20;99.90
8736;DHT22;4404;49.308;12.178;2024-03-23T10:12:08;9.40;99.90
8736;DHT22;4404;49.308;12.178;2024-03-23T10:14:11;9.20;99.90
8736;DHT22;4404;49.308;12.178;2024-03-23T10:16:40;10.30;99.90
8736;DHT22;4404;49.308;12.178;2024-03-23T10:18:50;8.90;99.90
8736;DHT22;4404;49.308;12.178;2024-03-23T10:21:06;9.80;99.90
8736;DHT22;4404;49.308;12.178;2024-03-23T10:23:15;9.10;99.90
8736;DHT22;4404;49.308;12.178;2024-03-23T10:25:24;9.10;99.90
8736;DHT22;4404;49.308;12.178;2024-03-23T10:27:27;10.10;99.90
8736;DHT22;4404;49.308;12.178;2024-03-23T10:29:28;8.80;99.90
8736;DHT22;4404;49.308;12.178;2024-03-23T10:31:36;8.00;99.90
8736;DHT22;4404;49.308;12.178;2024-03-23T10:33:44;9.00;99.90
8736;DHT22;4404;49.308;12.178;2024-03-23T10:38:49;9.00;99.90
8736;DHT22;4404;49.308;12.178;2024-03-23T10:44:24;9.00;99.90
8736;DHT22;4404;49.308;12.178;2024-03-23T10:46:33;9.00;99.90
8736;DHT22;4404;49.308;12.178;2024-03-23T10:48:47;9.10;99.90
8736;DHT22;4404;49.308;12.178;2024-03-23T10:53:41;9.40;99.90
8736;DHT22;4404;49.308;12.178;2024-03-23T10:56:37;9.60;99.90
8736;DHT22;4404;49.308;12.178;2024-03-23T11:01:28;9.10;99.90
8736;DHT22;4404;49.308;12.178;2024-03-23T11:06:34;8.80;99.90
8736;DHT22;4404;49.308;12.178;2024-03-23T11:08:37;9.80;99.90
8736;DHT22;4404;49.308;12.178;2024-03-23T11:10:40;9.60;99.90
8736;DHT22;4404;49.308;12.178;2024-03-23T11:12:42;9.40;99.90
8736;DHT22;4404;49.308;12.178;2024-03-23T11:14:47;9.50;99.90
8736;DHT22;4404;49.308;12.178;2024-03-23T11:17:08;9.70;99.90
8736;DHT22;4404;49.308;12.178;2024-03-23T11:19:37;9.40;99.90
8736;DHT22;4404;49.308;12.178;2024-03-23T11:21:54;9.50;99.90
8736;DHT22;4404;49.308;12.178;2024-03-23T11:24:12;9.50;99.90
8736;DHT22;4404;49.308;12.178;2024-03-23T11:26:14;10.20;99.90
8736;DHT22;4404;49.308;12.178;2024-03-23T11:31:33;9.00;99.90
8736;DHT22;4404;49.308;12.178;2024-03-23T11:33:35;9.60;99.90
8736;DHT22;4404;49.308;12.178;2024-03-23T11:35:41;9.70;99.90
8736;DHT22;4404;49.308;12.178;2024-03-23T11:38:07;9.90;99.90
8736;DHT22;4404;49.308;12.178;2024-03-23T11:40:19;9.70;99.90
8736;DHT22;4404;49.308;12.178;2024-03-23T11:45:24;9.20;99.90
8736;DHT22;4404;49.308;12.178;2024-03-23T11:47:27;9.30;99.90
8736;DHT22;4404;49.308;12.178;2024-03-23T11:49:29;9.40;99.90
8736;DHT22;4404;49.308;12.178;2024-03-23T11:51:35;9.90;99.90
8736;DHT22;4404;49.308;12.178;2024-03-23T11:56:58;8.90;99.90
8736;DHT22;4404;49.308;12.178;2024-03-23T11:59:01;8.90;99.90
8736;DHT22;4404;49.308;12.178;2024-03-23T12:01:10;8.90;99.90
8736;DHT22;4404;49.308;12.178;2024-03-23T12:03:20;9.00;99.90
8736;DHT22;4404;49.308;12.178;2024-03-23T12:05:26;9.00;99.90
8736;DHT22;4404;49.308;12.178;2024-03-23T12:07:29;8.90;99.90
8736;DHT22;4404;49.308;12.178;2024-03-23T12:09:31;9.20;99.90
8736;DHT22;4404;49.308;12.178;2024-03-23T12:11:34;9.60;99.90
8736;DHT22;4404;49.308;12.178;2024-03-23T12:13:37;9.80;99.90
8736;DHT22;4404;49.308;12.178;2024-03-23T12:16:08;9.90;99.90
8736;DHT22;4404;49.308;12.178;2024-03-23T12:18:12;9.60;99.90
8736;DHT22;4404;49.308;12.178;2024-03-23T12:20:13;9.90;99.90
8736;DHT22;4404;49.308;12.178;2024-03-23T12:22:20;9.80;99.90
8736;DHT22;4404;49.308;12.178;2024-03-23T12:31:30;9.00;99.90
8736;DHT22;4404;49.308;12.178;2024-03-23T12:33:33;8.80;99.90
8736;DHT22;4404;49.308;12.178;2024-03-23T12:35:38;9.50;99.90
8736;DHT22;4404;49.308;12.178;2024-03-23T12:37:40;10.30;99.90
8736;DHT22;4404;49.308;12.178;2024-03-23T12:39:42;9.50;99.90
8736;DHT22;4404;49.308;12.178;2024-03-23T12:41:45;10.20;99.90
8736;DHT22;4404;49.308;12.178;2024-03-23T12:43:47;11.40;99.90
8736;DHT22;4404;49.308;12.178;2024-03-23T12:45:50;11.30;99.90
8736;DHT22;4404;49.308;12.178;2024-03-23T12:47:51;11.10;99.90
8736;DHT22;4404;49.308;12.178;2024-03-23T12:50:00;11.00;99.90
8736;DHT22;4404;49.308;12.178;2024-03-23T12:52:01;10.10;99.90
8736;DHT22;4404;49.308;12.178;2024-03-23T12:54:05;10.70;99.90
8736;DHT22;4404;49.308;12.178;2024-03-23T12:56:06;10.10;99.90
8736;DHT22;4404;49.308;12.178;2024-03-23T12:58:47;10.50;99.90
8736;DHT22;4404;49.308;12.178;2024-03-23T13:01:12;9.10;99.90
8736;DHT22;4404;49.308;12.178;2024-03-23T13:03:14;9.10;99.90
8736;DHT22;4404;49.308;12.178;2024-03-23T13:05:16;9.10;99.90
8736;DHT22;4404;49.308;12.178;2024-03-23T13:07:34;9.20;99.90
8736;DHT22;4404;49.308;12.178;2024-03-23T13:09:36;9.30;99.90
8736;DHT22;4404;49.308;12.178;2024-03-23T13:11:37;9.80;99.90
8736;DHT22;4404;49.308;12.178;2024-03-23T13:13:39;9.60;99.90
8736;DHT22;4404;49.308;12.178;2024-03-23T13:15:51;9.80;99.90
8736;DHT22;4404;49.308;12.178;2024-03-23T13:17:53;9.70;99.90
8736;DHT22;4404;49.308;12.178;2024-03-23T13:19:54;9.60;99.90
8736;DHT22;4404;49.308;12.178;2024-03-23T13:22:23;9.50;99.90
8736;DHT22;4404;49.308;12.178;2024-03-23T13:24:24;9.50;99.90
8736;DHT22;4404;49.308;12.178;2024-03-23T13:26:27;9.40;99.90
8736;DHT22;4404;49.308;12.178;2024-03-23T13:28:28;10.10;99.90
8736;DHT22;4404;49.308;12.178;2024-03-23T13:30:31;9.10;99.90
8736;DHT22;4404;49.308;12.178;2024-03-23T13:32:33;10.20;99.90
8736;DHT22;4404;49.308;12.178;2024-03-23T13:34:36;9.70;99.90
8736;DHT22;4404;49.308;12.178;2024-03-23T13:36:37;9.40;99.90
8736;DHT22;4404;49.308;12.178;2024-03-23T13:38:42;9.80;99.90
8736;DHT22;4404;49.308;12.178;2024-03-23T13:40:53;9.50;99.90
8736;DHT22;4404;49.308;12.178;2024-03-23T13:42:56;9.30;99.90
8736;DHT22;4404;49.308;12.178;2024-03-23T13:44:58;9.90;99.90
8736;DHT22;4404;49.308;12.178;2024-03-23T13:47:03;9.20;99.90
8736;DHT22;4404;49.308;12.178;2024-03-23T13:49:18;9.20;99.90
8736;DHT22;4404;49.308;12.178;2024-03-23T13:51:27;9.60;99.90
8736;DHT22;4404;49.308;12.178;2024-03-23T13:53:28;9.10;99.90
8736;DHT22;4404;49.308;12.178;2024-03-23T13:55:34;10.00;99.90
8736;DHT22;4404;49.308;12.178;2024-03-23T13:57:35;10.50;99.90
8736;DHT22;4404;49.308;12.178;2024-03-23T13:59:37;9.10;99.90
8736;DHT22;4404;49.308;12.178;2024-03-23T14:01:38;9.20;99.90
8736;DHT22;4404;49.308;12.178;2024-03-23T14:03:41;9.10;99.90
8736;DHT22;4404;49.308;12.178;2024-03-23T14:05:46;9.30;99.90
8736;DHT22;4404;49.308;12.178;2024-03-23T14:07:48;9.30;99.90
8736;DHT22;4404;49.308;12.178;2024-03-23T14:09:49;8.90;99.90
8736;DHT22;4404;49.308;12.178;2024-03-23T14:11:55;9.70;99.90
8736;DHT22;4404;49.308;12.178;2024-03-23T14:13:57;8.70;99.90
8736;DHT22;4404;49.308;12.178;2024-03-23T14:16:02;9.40;99.90
8736;DHT22;4404;49.308;12.178;2024-03-23T14:18:04;9.50;99.90
8736;DHT22;4404;49.308;12.178;2024-03-23T14:20:08;9.50;99.90
8736;DHT22;4404;49.308;12.178;2024-03-23T14:22:13;9.40;99.90
8736;DHT22;4404;49.308;12.178;2024-03-23T14:24:15;9.40;99.90
8736;DHT22;4404;49.308;12.178;2024-03-23T14:26:17;9.50;99.90
8736;DHT22;4404;49.308;12.178;2024-03-23T14:28:19;10.20;99.90
8736;DHT22;4404;49.308;12.178;2024-03-23T14:30:23;9.60;99.90
8736;DHT22;4404;49.308;12.178;2024-03-23T14:32:25;10.10;99.90
8736;DHT22;4404;49.308;12.178;2024-03-23T14:34:26;9.50;99.90
8736;DHT22;4404;49.308;12.178;2024-03-23T14:36:29;10.30;99.90
8736;DHT22;4404;49.308;12.178;2024-03-23T14:38:32;9.40;99.90
8736;DHT22;4404;49.308;12.178;2024-03-23T14:41:09;9.70;99.90
8736;DHT22;4404;49.308;12.178;2024-03-23T14:43:10;9.30;99.90
8736;DHT22;4404;49.308;12.178;2024-03-23T14:45:12;9.20;99.90
8736;DHT22;4404;49.308;12.178;2024-03-23T14:47:16;9.30;99.90
8736;DHT22;4404;49.308;12.178;2024-03-23T14:49:20;9.20;99.90
8736;DHT22;4404;49.308;12.178;2024-03-23T14:51:22;9.30;99.90
8736;DHT22;4404;49.308;12.178;2024-03-23T14:53:28;9.70;99.90
8736;DHT22;4404;49.308;12.178;2024-03-23T14:55:32;9.30;99.90
8736;DHT22;4404;49.308;12.178;2024-03-23T14:57:33;9.50;99.90
8736;DHT22;4404;49.308;12.178;2024-03-23T14:59:35;9.50;99.90
8736;DHT22;4404;49.308;12.178;2024-03-23T15:01:38;9.70;99.90
8736;DHT22;4404;49.308;12.178;2024-03-23T15:03:40;9.40;99.90
8736;DHT22;4404;49.308;12.178;2024-03-23T15:05:52;9.20;99.90
8736;DHT22;4404;49.308;12.178;2024-03-23T15:07:56;9.40;99.90
8736;DHT22;4404;49.308;12.178;2024-03-23T15:09:59;9.20;99.90
8736;DHT22;4404;49.308;12.178;2024-03-23T15:12:04;9.30;99.90
8736;DHT22;4404;49.308;12.178;2024-03-23T15:14:06;9.40;99.90
8736;DHT22;4404;49.308;12.178;2024-03-23T15:16:08;9.60;99.90
8736;DHT22;4404;49.308;12.178;2024-03-23T15:18:10;9.70;99.90
8736;DHT22;4404;49.308;12.178;2024-03-23T15:20:15;9.80;99.90
8736;DHT22;4404;49.308;12.178;2024-03-23T15:22:16;9.80;99.90
8736;DHT22;4404;49.308;12.178;2024-03-23T15:24:19;9.90;99.90
8736;DHT22;4404;49.308;12.178;2024-03-23T15:26:20;10.10;99.30
8736;DHT22;4404;49.308;12.178;2024-03-23T15:28:23;10.00;99.30
8736;DHT22;4404;49.308;12.178;2024-03-23T15:30:27;9.90;99.30
8736;DHT22;4404;49.308;12.178;2024-03-23T15:32:30;10.00;99.00
8736;DHT22;4404;49.308;12.178;2024-03-23T15:34:31;10.00;99.30
8736;DHT22;4404;49.308;12.178;2024-03-23T15:36:33;10.70;99.40
8736;DHT22;4404;49.308;12.178;2024-03-23T15:38:34;10.10;98.40
8736;DHT22;4404;49.308;12.178;2024-03-23T15:40:37;10.40;98.80
8736;DHT22;4404;49.308;12.178;2024-03-23T15:42:38;10.10;98.80
8736;DHT22;4404;49.308;12.178;2024-03-23T15:44:42;10.20;99.00
8736;DHT22;4404;49.308;12.178;2024-03-23T15:46:43;10.20;98.20
8736;DHT22;4404;49.308;12.178;2024-03-23T15:48:46;10.20;98.30
8736;DHT22;4404;49.308;12.178;2024-03-23T15:50:51;10.20;98.20
8736;DHT22;4404;49.308;12.178;2024-03-23T15:52:53;10.20;97.80
8736;DHT22;4404;49.308;12.178;2024-03-23T15:54:56;11.00;98.40
8736;DHT22;4404;49.308;12.178;2024-03-23T15:57:00;10.50;97.10
8736;DHT22;4404;49.308;12.178;2024-03-23T15:59:03;10.20;96.80
8736;DHT22;4404;49.308;12.178;2024-03-23T16:01:09;10.00;96.40
8736;DHT22;4404;49.308;12.178;2024-03-23T16:03:14;10.70;96.90
8736;DHT22;4404;49.308;12.178;2024-03-23T16:05:15;9.70;95.70
8736;DHT22;4404;49.308;12.178;2024-03-23T16:07:19;10.30;96.10
8736;DHT22;4404;49.308;12.178;2024-03-23T16:09:20;10.10;96.40
8736;DHT22;4404;49.308;12.178;2024-03-23T16:11:23;10.40;97.00
8736;DHT22;4404;49.308;12.178;2024-03-23T16:13:25;10.10;97.00
8736;DHT22;4404;49.308;12.178;2024-03-23T16:15:28;9.50;96.60
8736;DHT22;4404;49.308;12.178;2024-03-23T16:17:31;9.60;97.20
8736;DHT22;4404;49.308;12.178;2024-03-23T16:19:35;9.90;97.30
8736;DHT22;4404;49.308;12.178;2024-03-23T16:21:37;9.70;97.40
8736;DHT22;4404;49.308;12.178;2024-03-23T16:23:45;9.30;97.40
8736;DHT22;4404;49.308;12.178;2024-03-23T16:25:48;9.30;97.50
8736;DHT22;4404;49.308;12.178;2024-03-23T16:27:57;9.20;97.90
8736;DHT22;4404;49.308;12.178;2024-03-23T16:29:58;10.00;97.70
8736;DHT22;4404;49.308;12.178;2024-03-23T16:32:01;9.90;98.80
8736;DHT22;4404;49.308;12.178;2024-03-23T16:34:03;9.50;98.90
8736;DHT22;4404;49.308;12.178;2024-03-23T16:36:07;9.50;98.70
8736;DHT22;4404;49.308;12.178;2024-03-23T16:38:12;8.90;98.90
8736;DHT22;4404;49.308;12.178;2024-03-23T16:40:34;8.40;99.90
8736;DHT22;4404;49.308;12.178;2024-03-23T16:45:27;6.60;99.90
8736;DHT22;4404;49.308;12.178;2024-03-23T16:47:28;7.40;99.90
8736;DHT22;4404;49.308;12.178;2024-03-23T16:49:36;6.40;99.90
8736;DHT22;4404;49.308;12.178;2024-03-23T16:51:37;5.80;99.90
8736;DHT22;4404;49.308;12.178;2024-03-23T16:53:39;6.80;99.90
8736;DHT22;4404;49.308;12.178;2024-03-23T16:55:41;5.80;99.90
8736;DHT22;4404;49.308;12.178;2024-03-23T16:57:43;6.40;99.90
8736;DHT22;4404;49.308;12.178;2024-03-23T16:59:44;6.80;99.90
8736;DHT22;4404;49.308;12.178;2024-03-23T17:01:46;7.30;99.90
8736;DHT22;4404;49.308;12.178;2024-03-23T17:03:48;6.80;99.90
8736;DHT22;4404;49.308;12.178;2024-03-23T17:05:53;6.90;99.90
8736;DHT22;4404;49.308;12.178;2024-03-23T17:07:54;6.90;99.90
8736;DHT22;4404;49.308;12.178;2024-03-23T17:09:58;6.80;99.90
8736;DHT22;4404;49.308;12.178;2024-03-23T17:11:59;7.00;99.90
8736;DHT22;4404;49.308;12.178;2024-03-23T17:14:01;7.10;99.90
8736;DHT22;4404;49.308;12.178;2024-03-23T17:16:03;6.40;99.90
8736;DHT22;4404;49.308;12.178;2024-03-23T17:18:06;6.20;99.90
8736;DHT22;4404;49.308;12.178;2024-03-23T17:20:08;5.40;99.90
8736;DHT22;4404;49.308;12.178;2024-03-23T17:22:14;5.90;99.90
8736;DHT22;4404;49.308;12.178;2024-03-23T17:24:15;6.20;99.90
8736;DHT22;4404;49.308;12.178;2024-03-23T17:26:17;6.30;99.90
8736;DHT22;4404;49.308;12.178;2024-03-23T17:28:21;6.30;99.90
8736;DHT22;4404;49.308;12.178;2024-03-23T17:30:25;6.80;99.90
8736;DHT22;4404;49.308;12.178;2024-03-23T17:32:27;6.00;99.90
8736;DHT22;4404;49.308;12.178;2024-03-23T17:34:30;5.80;99.90
8736;DHT22;4404;49.308;12.178;2024-03-23T17:36:31;6.00;99.90
8736;DHT22;4404;49.308;12.178;2024-03-23T17:38:37;5.80;99.90
8736;DHT22;4404;49.308;12.178;2024-03-23T17:40:38;5.90;99.90
8736;DHT22;4404;49.308;12.178;2024-03-23T17:42:41;5.70;99.90
8736;DHT22;4404;49.308;12.178;2024-03-23T17:44:42;5.60;99.90
8736;DHT22;4404;49.308;12.178;2024-03-23T17:46:43;6.00;99.90
8736;DHT22;4404;49.308;12.178;2024-03-23T17:48:46;6.00;99.90
8736;DHT22;4404;49.308;12.178;2024-03-23T17:50:47;5.70;99.90
8736;DHT22;4404;49.308;12.178;2024-03-23T17:52:49;5.90;99.90
8736;DHT22;4404;49.308;12.178;2024-03-23T17:54:51;5.60;99.90
8736;DHT22;4404;49.308;12.178;2024-03-23T17:56:53;5.60;99.90
8736;DHT22;4404;49.308;12.178;2024-03-23T17:58:55;5.50;99.90
8736;DHT22;4404;49.308;12.178;2024-03-23T18:00:57;5.50;99.90
8736;DHT22;4404;49.308;12.178;2024-03-23T18:02:58;6.10;99.90
8736;DHT22;4404;49.308;12.178;2024-03-23T18:05:00;5.30;99.90
8736;DHT22;4404;49.308;12.178;2024-03-23T18:07:02;5.30;99.90
8736;DHT22;4404;49.308;12.178;2024-03-23T18:09:04;5.30;99.90
8736;DHT22;4404;49.308;12.178;2024-03-23T18:11:10;5.40;99.90
8736;DHT22;4404;49.308;12.178;2024-03-23T18:13:12;5.10;99.90
8736;DHT22;4404;49.308;12.178;2024-03-23T18:15:14;5.00;99.90
8736;DHT22;4404;49.308;12.178;2024-03-23T18:17:16;5.40;99.90
8736;DHT22;4404;49.308;12.178;2024-03-23T18:19:17;4.90;99.90
8736;DHT22;4404;49.308;12.178;2024-03-23T18:21:19;5.00;99.90
8736;DHT22;4404;49.308;12.178;2024-03-23T18:23:21;6.20;99.90
8736;DHT22;4404;49.308;12.178;2024-03-23T18:25:24;5.10;99.90
8736;DHT22;4404;49.308;12.178;2024-03-23T18:27:27;5.60;99.90
8736;DHT22;4404;49.308;12.178;2024-03-23T18:29:29;5.20;99.90
8736;DHT22;4404;49.308;12.178;2024-03-23T18:31:30;5.10;99.90
8736;DHT22;4404;49.308;12.178;2024-03-23T18:33:34;5.10;99.90
8736;DHT22;4404;49.308;12.178;2024-03-23T18:35:37;4.90;99.90
8736;DHT22;4404;49.308;12.178;2024-03-23T18:37:39;5.30;99.90
8736;DHT22;4404;49.308;12.178;2024-03-23T18:39:40;4.90;99.90
8736;DHT22;4404;49.308;12.178;2024-03-23T18:41:42;5.00;99.90
8736;DHT22;4404;49.308;12.178;2024-03-23T18:43:47;4.90;99.90
8736;DHT22;4404;49.308;12.178;2024-03-23T18:45:51;5.10;99.90
8736;DHT22;4404;49.308;12.178;2024-03-23T18:47:52;6.00;99.90
8736;DHT22;4404;49.308;12.178;2024-03-23T18:49:53;5.60;99.90
8736;DHT22;4404;49.308;12.178;2024-03-23T18:51:58;4.80;99.90
8736;DHT22;4404;49.308;12.178;2024-03-23T18:53:59;4.80;99.90
8736;DHT22;4404;49.308;12.178;2024-03-23T18:56:02;5.20;99.90
8736;DHT22;4404;49.308;12.178;2024-03-23T18:58:04;4.60;99.90
8736;DHT22;4404;49.308;12.178;2024-03-23T19:00:09;4.50;99.90
8736;DHT22;4404;49.308;12.178;2024-03-23T19:02:11;4.30;99.90
8736;DHT22;4404;49.308;12.178;2024-03-23T19:04:13;4.20;99.90
8736;DHT22;4404;49.308;12.178;2024-03-23T19:06:14;4.30;99.90
8736;DHT22;4404;49.308;12.178;2024-03-23T19:08:17;4.70;99.90
8736;DHT22;4404;49.308;12.178;2024-03-23T19:10:18;4.40;99.90
8736;DHT22;4404;49.308;12.178;2024-03-23T19:12:21;4.30;99.90
8736;DHT22;4404;49.308;12.178;2024-03-23T19:14:22;4.40;99.90
8736;DHT22;4404;49.308;12.178;2024-03-23T19:16:26;5.10;99.90
8736;DHT22;4404;49.308;12.178;2024-03-23T19:18:29;3.80;99.90
8736;DHT22;4404;49.308;12.178;2024-03-23T19:20:31;4.60;99.90
8736;DHT22;4404;49.308;12.178;2024-03-23T19:22:33;4.60;99.90
8736;DHT22;4404;49.308;12.178;2024-03-23T19:24:35;4.60;99.90
8736;DHT22;4404;49.308;12.178;2024-03-23T19:26:36;4.60;99.90
8736;DHT22;4404;49.308;12.178;2024-03-23T19:28:38;4.90;99.90
8736;DHT22;4404;49.308;12.178;2024-03-23T19:30:39;4.60;99.90
8736;DHT22;4404;49.308;12.178;2024-03-23T19:32:43;4.50;99.90
8736;DHT22;4404;49.308;12.178;2024-03-23T19:34:47;4.50;99.90
8736;DHT22;4404;49.308;12.178;2024-03-23T19:36:49;4.40;99.90
8736;DHT22;4404;49.308;12.178;2024-03-23T19:38:50;4.30;99.90
8736;DHT22;4404;49.308;12.178;2024-03-23T19:40:54;4.30;99.90
8736;DHT22;4404;49.308;12.178;2024-03-23T19:42:55;4.10;99.90
8736;DHT22;4404;49.308;12.178;2024-03-23T19:44:57;5.10;99.90
8736;DHT22;4404;49.308;12.178;2024-03-23T19:46:58;3.20;99.90
8736;DHT22;4404;49.308;12.178;2024-03-23T19:49:02;4.60;99.90
8736;DHT22;4404;49.308;12.178;2024-03-23T19:51:04;4.30;99.90
8736;DHT22;4404;49.308;12.178;2024-03-23T19:53:06;3.60;99.90
8736;DHT22;4404;49.308;12.178;2024-03-23T19:55:08;3.60;99.90
8736;DHT22;4404;49.308;12.178;2024-03-23T19:57:11;3.80;99.90
8736;DHT22;4404;49.308;12.178;2024-03-23T19:59:12;4.50;99.90
8736;DHT22;4404;49.308;12.178;2024-03-23T20:01:16;3.50;99.90
8736;DHT22;4404;49.308;12.178;2024-03-23T20:03:19;3.80;99.90
8736;DHT22;4404;49.308;12.178;2024-03-23T20:05:22;4.40;99.90
8736;DHT22;4404;49.308;12.178;2024-03-23T20:07:24;4.30;99.90
8736;DHT22;4404;49.308;12.178;2024-03-23T20:09:26;3.30;99.90
8736;DHT22;4404;49.308;12.178;2024-03-23T20:11:30;3.30;99.90
8736;DHT22;4404;49.308;12.178;2024-03-23T20:13:31;3.90;99.90
8736;DHT22;4404;49.308;12.178;2024-03-23T20:15:33;3.30;99.90
